Terminal Aerodrome Forecast
Issued by NWS Amarillo, TX

Home | Current Version | Previous Version | Text Only | Print | Product List | Glossary On
Versions: 1 2 3 4 5 6 7 8 9 10 11 12 13 14 15 16 17 18 19 20 21 22 23 24 25 26
000
FTUS44 KAMA 190300 AAB
TAFAMA
TAF AMD
KAMA 190347Z 1904/1924 09007KT P6SM OVC008
     FM190600 16006KT 2SM BR OVC004
     FM191700 19005KT P6SM OVC012=

USA.gov is the U.S. government's official web portal to all federal, state and local government web resources and services.